x

Frying Pan Shoals, Nc Buoy (41013) Weather Station

5:20 - Mon 27th Feb 2017 All times are EST. -5 hours from GMT.

  • Wind
    9mph, 16mph gusts
  • Sea Temp 69°f
  • Air Temp 60°f
  • Sea Pressure 1027.8mb
  • Frying Pan Shoals, Nc Buoy
  • Frying Pan Shoals, Nc Buoy

More Historic Weather Station data

Upgrade to MSW Pro to gain access to the past 30 days of data for over 8000 Wavebouys and Weather Stations around the globe.

Join Pro

Comparision Forecast

View Surf forecast
   
lun. 02/27 5:20  -   -   -  9 16 mph 1027.8mb 69f 60f
5:10  -   -   -  9 16 mph 1027.8mb 69f 60f
5:00  -   -   -  11 16 mph 1027.7mb 69f 60f
4:50 2.5ft 8s 6s 9 13 mph 1027.8mb 69f 60f
4:40 2.5ft  -  6s 9 13 mph 1027.8mb 69f 60f
4:30  -   -   -  9 13 mph 1027.8mb 69f 59f
4:20  -   -   -  9 13 mph 1027.8mb 69f 59f
4:10  -   -   -  9 13 mph 1027.7mb 69f 59f
4:00  -   -   -  9 13 mph 1027.5mb 69f 59f
3:50 2.5ft 8s 6s 9 11 mph 1027.3mb 69f 59f
3:40  -   -   -  9 13 mph 1027.3mb 69f 59f
3:30  -   -   -  9 13 mph 1027.2mb 69f 59f
3:20  -   -   -  9 13 mph 1027mb 69f 59f
3:10  -   -   -  9 13 mph 1027mb 69f 59f
3:00  -   -   -  9 13 mph 1027.3mb 69f 59f
2:50 2.5ft 9s 7s 9 11 mph 1027.3mb 69f 58f
2:40 2.5ft  -  7s 9 13 mph 1027.3mb 69f 59f
2:30  -   -   -  9 11 mph 1027.3mb 69f 58f
2:20  -   -   -  9 13 mph 1027.5mb 69f 59f
2:10  -   -   -  9 13 mph 1027.3mb 69f 59f
2:00  -   -   -  9 13 mph 1027.5mb 69f 59f
1:50 2.5ft 9s 7s 9 13 mph 1027.5mb 69f 59f
1:40  -   -   -  9 11 mph 1027.5mb 69f 59f
1:30  -   -   -  9 11 mph 1027.3mb 69f 59f
1:20  -   -   -  9 11 mph 1027.3mb 69f 59f
1:10  -   -   -  7 11 mph 1027.5mb 69f 59f
1:00  -   -   -  7 11 mph 1027.5mb 69f 59f
12:50 2.5ft 9s 6s 7 11 mph 1027.5mb 69f 59f
12:40 2.5ft  -  6s 7 11 mph 1027.3mb 69f 59f
12:30  -   -   -  7 9 mph 1027.3mb 69f 59f
12:20  -   -   -  7 11 mph 1027.3mb 69f 59f
12:10  -   -   -  7 9 mph 1027.3mb 69f 59f
12:00  -   -   -  7 11 mph 1027mb 69f 59f
dim. 02/26 11:50 2.5ft 10s 6s 7 11 mph 1027mb 69f 59f
11:40  -   -   -  7 9 mph 1026.8mb 69f 59f
11:30  -   -   -  7 9 mph 1026.8mb 69f 59f
11:20  -   -   -  7 9 mph 1026.8mb 69f 59f
11:10  -   -   -  4 9 mph 1026.8mb 69f 59f
11:00  -   -   -  7 9 mph 1026.8mb 69f 59f
10:50 3ft 9s 6s 7 9 mph 1026.8mb 69f 59f
10:40 3ft  -  6s 7 9 mph 1026.8mb 69f 59f
10:30  -   -   -  4 7 mph 1026.8mb 69f 59f
10:20  -   -   -  7 9 mph 1026.8mb 69f 59f
10:10  -   -   -  4 9 mph 1026.7mb 69f 58f
10:00  -   -   -  4 9 mph 1026.7mb 69f 58f
9:50 2.5ft 8s 6s 2 7 mph 1026.5mb 69f 58f
9:40  -   -   -  4 7 mph 1026.5mb 69f 58f
9:30  -   -   -  4 7 mph 1026.3mb 69f 58f
9:20  -   -   -  4 9 mph 1026mb 69f 58f
9:10  -   -   -  4 9 mph 1026mb 69f 58f
9:00  -   -   -  7 9 mph 1025.8mb 69f 58f
8:50 3ft 9s 6s 7 9 mph 1025.8mb 69f 58f
8:40  -   -   -  4 9 mph 1025.5mb 69f 58f
8:30  -   -   -  4 7 mph 1025.5mb 69f 58f
8:20  -   -   -  4 7 mph 1025.5mb 69f 58f
8:10  -   -   -  4 9 mph 1025.3mb 69f 58f
8:00  -   -   -  7 9 mph 1025.3mb 69f 58f
7:50 2.5ft 9s 6s 2 7 mph 1025.2mb 69f 57f
7:40 2.5ft  -  6s 2 4 mph 1025mb 69f 57f
7:30  -   -   -  2 4 mph 1025mb 69f 57f
7:20  -   -   -  2 4 mph 1025mb 69f 57f
7:10  -   -   -   -  4 mph 1024.8mb 69f 57f
7:00  -   -   -  2 4 mph 1024.5mb 69f 57f
6:50 3ft 9s 6s 2 4 mph 1024.5mb 69f 57f
6:40  -   -   -  4 11 mph 1024.3mb 69f 56f
6:30  -   -   -  2 7 mph 1024.3mb - -
6:20  -   -   -  4 9 mph 1024mb 69f 56f
6:10  -   -   -  2 4 mph 1023.9mb 69f 56f
6:00  -   -   -  4 7 mph 1023.6mb 69f 56f
5:50 3ft 10s 5s 4 7 mph 1023.4mb 69f 56f
5:40  -   -   -  4 7 mph 1023.4mb 69f 56f
5:30  -   -   -  4 9 mph 1023.1mb 69f 56f
5:20  -   -   -  4 7 mph 1023mb 69f 56f
5:10  -   -   -  4 9 mph 1023.1mb 69f 56f
5:00  -   -   -  4 7 mph 1023mb 69f 56f
4:50 3.5ft 9s 5s 4 9 mph 1022.9mb 69f 56f
4:40 3.5ft  -  5s 7 9 mph 1023mb 69f 56f
4:30  -   -   -  7 11 mph 1023mb 69f 56f
4:20  -   -   -  7 11 mph 1022.9mb 69f 56f
4:10  -   -   -  7 11 mph 1022.9mb 69f 56f
4:00  -   -   -  7 11 mph 1023mb 69f 55f
3:50 3.5ft 9s 5s 9 11 mph 1022.9mb 69f 55f
3:40 3.5ft  -  5s 7 13 mph 1022.9mb 69f 55f
3:30  -   -   -  7 11 mph 1022.9mb 69f 55f
3:20  -   -   -  7 11 mph 1022.8mb 69f 55f
3:10  -   -   -  7 11 mph 1022.8mb 69f 55f
3:00  -   -   -  4 7 mph 1022.6mb 70f 55f
2:50 3.5ft 9s 5s 2 7 mph 1022.5mb 70f 55f
2:40 3.5ft  -  5s 4 9 mph 1022.5mb 69f 55f
2:30  -   -   -  4 9 mph 1022.4mb 70f 54f
2:20  -   -   -  4 9 mph 1022.3mb 70f 54f
2:10  -   -   -  7 11 mph 1022.3mb 70f 54f
2:00  -   -   -  4 9 mph 1022.1mb 70f 54f
1:50 3.5ft 9s 5s 7 9 mph 1022.1mb 70f 54f
1:40 3.5ft  -  5s 7 9 mph 1022mb 70f 54f
1:30  -   -   -  7 9 mph 1022.3mb 70f 54f
1:20  -   -   -  7 11 mph 1022.3mb 70f 53f
1:10  -   -   -  7 11 mph 1022.3mb 70f 54f
1:00  -   -   -  7 11 mph 1022.4mb 70f 53f
12:50 3.5ft 9s 5s 7 13 mph 1022.4mb 70f 53f
12:40  -   -   -  9 11 mph 1022.5mb 70f 53f
12:30  -   -   -  9 13 mph 1022.4mb 70f 53f
12:20  -   -   -  11 13 mph 1022.4mb 70f 53f
12:10  -   -   -  11 16 mph 1022.5mb 70f 53f
12:00  -   -   -  11 16 mph 1022.5mb 70f 53f
11:50 4ft 10s 5s 11 16 mph 1022.5mb 70f 53f
11:40  -   -   -  11 16 mph 1022.6mb 70f 53f
11:30  -   -   -  11 16 mph 1022.5mb 70f 53f
11:20  -   -   -  11 16 mph 1022.5mb 70f 53f
11:10  -   -   -  13 18 mph 1022.9mb 70f 53f
11:00  -   -   -  13 18 mph 1022.9mb 70f 53f
10:50 4.5ft 10s 5s 13 20 mph 1022.5mb 70f 53f
10:40  -   -   -  13 18 mph 1022.4mb 70f 53f
10:30  -   -   -  13 18 mph 1022.4mb 70f 53f
10:20  -   -   -  16 20 mph 1022.3mb 70f 53f
10:10  -   -   -  16 20 mph 1022.1mb 70f 53f
10:00  -   -   -  16 20 mph 1022mb 70f 53f
9:50 5ft 9s 5s 16 20 mph 1022mb 70f 53f
9:40 5ft  -  5s 16 25 mph 1021.8mb 70f 53f
9:30  -   -   -  16 22 mph 1021.5mb 70f 54f
9:20  -   -   -  16 22 mph 1021.4mb 70f 54f
9:10  -   -   -  18 25 mph 1021.1mb 70f 54f
9:00  -   -   -  18 22 mph 1020.9mb 70f 54f
8:50 5ft 5s 5s 18 25 mph 1020.6mb 70f 54f
8:40  -   -   -  18 22 mph 1020.5mb 70f 54f
8:30  -   -   -  18 22 mph 1020.1mb 70f 54f
8:20  -   -   -  18 22 mph 1020.3mb 70f 55f
8:10  -   -   -  18 25 mph 1020mb 70f 55f
8:00  -   -   -  18 22 mph 1019.9mb 70f 55f
7:50 5ft  -  5s 18 25 mph 1019.5mb 70f -
7:40  -   -   -  18 25 mph 1019.5mb 70f 56f
7:30  -   -   -  20 25 mph 1019.3mb 70f 55f
7:20  -   -   -  18 25 mph 1019mb 70f 56f
7:10  -   -   -  20 27 mph 1018.6mb 69f 56f
7:00  -   -   -  20 25 mph 1018.5mb 69f 56f
6:50 5ft 5s 5s 20 27 mph 1018.3mb 69f 57f
6:40  -   -   -  22 27 mph 1018mb 69f 57f
6:30  -   -   -  22 27 mph 1017.6mb 69f 57f
6:20  -   -   -  22 27 mph 1017.5mb 69f 57f
6:10  -   -   -  22 29 mph 1017.3mb 69f 58f
6:00  -   -   -  22 27 mph 1017mb 69f 58f
5:50 5ft 10s 5s 22 29 mph 1017mb 69f 58f
5:40 5ft  -  5s 20 27 mph 1016.5mb 69f 58f
5:30  -   -   -  20 25 mph 1016.3mb 69f 58f
5:20  -   -   -  22 27 mph 1016mb 69f 58f
5:10  -   -   -  22 29 mph 1016mb 69f 59f
5:00  -   -   -  25 29 mph 1015.6mb 69f 59f
4:50 5ft 10s 5s 25 29 mph 1015.5mb 69f 59f
4:40 5ft  -  5s 22 29 mph 1015mb 69f 60f
4:30  -   -   -  22 29 mph 1014.9mb 69f 60f
4:20  -   -   -  22 29 mph 1014.6mb 69f 61f
4:10  -   -   -  25 29 mph 1014.5mb 69f 61f
4:00  -   -   -  25 31 mph 1014.4mb 69f 61f
3:50 5ft 10s 5s 25 31 mph 1014mb 69f 61f
3:40  -   -   -  22 29 mph 1014mb 69f 62f
3:30  -   -   -  22 27 mph 1014mb 69f 62f
3:20  -   -   -  22 29 mph 1013.5mb 69f 62f
3:10  -   -   -  22 29 mph 1013.4mb 69f 62f
3:00  -   -   -  25 31 mph 1013.3mb 69f 63f
2:50 5.5ft 7s 5s 25 31 mph 1013.3mb 69f 63f
2:40  -   -   -  25 34 mph 1013.1mb 69f 64f
2:30  -   -   -  27 34 mph 1012.9mb 69f 64f
2:20  -   -   -  27 34 mph 1012.6mb 69f 64f
2:10  -   -   -  27 34 mph 1012.5mb 69f 64f
2:00  -   -   -  27 31 mph 1012.6mb 69f 65f
1:50 5.5ft 7s 5s 25 31 mph 1012.6mb 69f 65f
1:40 5.5ft  -  5s 22 31 mph 1012.5mb - 65f
1:30  -   -   -  22 31 mph 1012.5mb 69f 65f
1:20  -   -   -  22 27 mph 1012.3mb 69f 65f
1:10  -   -   -  22 29 mph 1012.1mb 69f 66f
1:00  -   -   -  25 29 mph 1012mb 69f 66f
12:50 6.5ft 9s 5s 22 29 mph 1011.9mb 69f 66f
12:40 6.5ft  -  5s 22 29 mph 1011.6mb 69f 66f
12:30  -   -   -  27 34 mph 1011.5mb 69f 67f
12:20  -   -   -  25 34 mph 1011.3mb 69f 67f
12:10  -   -   -  27 36 mph 1011mb 69f 67f
12:00  -   -   -  25 29 mph 1011mb 69f 67f
sam. 02/25 11:50 7ft 6s 5s 25 31 mph 1010.8mb 69f 68f
11:40  -   -   -  25 31 mph 1010.5mb 69f 68f
11:30  -   -   -  27 34 mph 1010.5mb 69f 68f
11:20  -   -   -  27 34 mph 1010.3mb 69f 68f
11:10  -   -   -  27 34 mph 1010.3mb 69f 68f
11:00  -   -   -  27 34 mph 1010mb 69f 68f
10:50 7ft 6s 5s 27 31 mph 1009.9mb 69f 69f
10:40 7ft  -  5s 25 31 mph 1009.5mb 69f 69f
10:30  -   -   -  25 31 mph 1009.4mb 69f 70f
10:20  -   -   -  25 29 mph 1009.4mb 70f 71f
10:10  -   -   -  22 31 mph 1009.3mb 70f 71f
10:00  -   -   -  25 29 mph 1008.9mb 70f 71f
9:50 7ft 6s 5s 27 34 mph 1008.6mb 71f 71f
9:40 7ft  -  5s 27 34 mph 1008.5mb 71f 71f
9:30  -   -   -  25 31 mph 1008.4mb 71f 71f
9:20  -   -   -  25 31 mph 1008.3mb 71f 71f
9:10  -   -   -  27 34 mph 1008.1mb 71f 71f
9:00  -   -   -  25 31 mph 1008mb 72f 71f
8:50 7.5ft 6s 5s 27 34 mph 1007.9mb 72f 71f
8:40  -   -   -  27 34 mph 1007.6mb 72f 72f
8:30  -   -   -  27 34 mph 1007.5mb 72f 72f
8:20  -   -   -  27 34 mph 1007.4mb 72f 72f
8:10  -   -   -  27 34 mph 1007.1mb 72f 72f
8:00  -   -   -  27 34 mph 1007.1mb 72f 72f
7:50 7.5ft 6s 5s 27 31 mph 1007mb 72f 72f
7:40 7.5ft  -  5s 27 34 mph 1006.9mb 72f 72f
7:30  -   -   -  27 36 mph 1006.6mb 72f -
7:20  -   -   -  29 36 mph 1006.5mb 72f 72f
7:10  -   -   -  29 36 mph 1006.5mb 72f 72f
7:00  -   -   -  29 36 mph 1006.3mb 73f 72f
6:50 6.5ft 11s 5s 29 36 mph 1006.3mb 73f 72f
6:40 6.5ft  -  5s 29 36 mph 1006.1mb 73f 72f
6:30  -   -   -  29 36 mph 1006mb 73f 72f
6:20  -   -   -  29 34 mph 1006mb 73f 72f
6:10  -   -   -  29 36 mph 1006mb 73f 72f
6:00  -   -   -  27 36 mph 1005.9mb 73f 72f
5:50 6.5ft 11s 5s 27 34 mph 1006mb 73f 72f
5:40  -   -   -  27 34 mph 1005.9mb 73f 72f
5:30  -   -   -  27 36 mph 1005.9mb - -
5:20  -   -   -  27 34 mph 1005.9mb 73f 72f
5:10  -   -   -  27 36 mph 1005.9mb 73f 72f
5:00  -   -   -  27 34 mph 1005.8mb 73f 72f
4:50 6.5ft 10s 5s 27 34 mph 1005.9mb 73f 72f
4:40 6.5ft  -  5s 25 29 mph 1005.9mb 73f 73f
4:30  -   -   -  27 34 mph 1006mb 73f 72f
4:20  -   -   -  27 34 mph 1005.9mb 73f 73f
4:10  -   -   -  25 34 mph 1005.8mb 73f 72f
4:00  -   -   -  25 31 mph 1006mb 73f 72f
3:50 6ft 10s 5s 25 29 mph 1006mb 73f 72f
3:40 6ft  -  5s 22 31 mph 1006.1mb 73f 72f
3:30  -   -   -  22 27 mph 1006.1mb 73f 72f
3:20  -   -   -  22 29 mph 1006.1mb 73f 72f
3:10  -   -   -  22 27 mph 1006.1mb 73f 72f
3:00  -   -   -  22 27 mph 1006.3mb 73f 72f
2:50 6.5ft 10s 6s 22 27 mph 1006.1mb 72f 72f
2:40 6.5ft  -  6s 22 27 mph 1006.3mb 73f 71f
2:30  -   -   -  20 27 mph 1006.3mb 73f 71f
2:20  -   -   -  20 27 mph 1006.4mb 73f 71f
2:10  -   -   -  20 27 mph 1006.4mb 73f 71f
2:00  -   -   -  22 27 mph 1006.5mb 73f 71f
1:50 5.5ft 10s 6s 22 27 mph 1006.8mb 73f 71f
1:40 5.5ft  -  6s 22 27 mph 1006.9mb 73f 71f
1:30  -   -   -  22 27 mph 1007mb 73f 71f
1:20  -   -   -  22 27 mph 1007.3mb 72f 71f
1:10  -   -   -  20 25 mph 1007.4mb 72f 71f
1:00  -   -   -  20 25 mph 1007.5mb 73f 71f
12:50 5.5ft 11s 6s 20 25 mph 1007.8mb 73f 71f
12:40 5.5ft  -  6s 18 22 mph 1008mb 72f 71f
12:30  -   -   -  18 22 mph 1008.1mb 72f 71f
12:20  -   -   -  16 20 mph 1008.5mb 72f 71f
12:10  -   -   -  16 20 mph 1008.6mb 72f 71f
12:00  -   -   -  16 20 mph 1008.8mb 72f 71f
11:50 6ft 11s 7s 16 20 mph 1008.9mb 72f 71f
11:40  -   -   -  16 18 mph 1009mb 72f 71f
11:30  -   -   -  16 20 mph 1009.1mb 72f 70f
11:20  -   -   -  16 20 mph 1009.4mb 72f 70f
11:10  -   -   -  16 20 mph 1009.4mb 72f 70f
11:00  -   -   -  16 20 mph 1009.5mb 72f 70f
10:50 5.5ft 11s 7s 16 22 mph 1009.6mb 72f 70f
10:40 5.5ft  -  7s 16 20 mph 1009.8mb 72f 70f
10:30  -   -   -  16 20 mph 1009.9mb 72f 69f
10:20  -   -   -  13 16 mph 1009.9mb 72f 69f
10:10  -   -   -  13 16 mph 1009.9mb 72f 69f
10:00  -   -   -  11 16 mph 1009.9mb 72f 69f
9:50 6.5ft 11s 8s 11 16 mph 1010mb 72f 69f
9:40  -   -   -  11 16 mph 1010mb 72f 69f
9:30  -   -   -  11 16 mph 1010mb 72f 69f
9:20  -   -   -  9 16 mph 1009.9mb 72f 69f
9:10  -   -   -  9 13 mph 1009.8mb 72f 69f
9:00  -   -   -  11 16 mph 1009.9mb 72f 69f
8:50 5.5ft 11s 8s 11 16 mph 1009.8mb 72f 69f
8:40  -   -   -  11 13 mph 1009.9mb 72f 69f
8:30  -   -   -  11 13 mph 1009.9mb 72f 69f
8:20  -   -   -  9 13 mph 1009.9mb 72f 69f
8:10  -   -   -  9 11 mph 1009.8mb 72f 69f
8:00  -   -   -  9 13 mph 1009.8mb 72f 69f
7:50 5.5ft 11s 8s 9 11 mph 1009.8mb 72f 69f
7:40 5.5ft  -  8s 7 11 mph 1009.5mb 72f 69f
7:30  -   -   -  9 11 mph 1009.5mb - 69f
7:20  -   -   -  9 11 mph 1009.4mb 72f 69f
7:10  -   -   -  7 11 mph 1009.3mb 72f 69f
7:00  -   -   -  4 9 mph 1009mb 72f 69f
6:50 6ft 10s 8s 4 7 mph 1008.6mb 72f 69f
6:40 6ft  -  8s 4 7 mph 1008.5mb 72f 69f
6:30  -   -   -  4 9 mph 1008.5mb 72f 69f
6:20  -   -   -  4 9 mph 1008.5mb 72f 69f
6:10  -   -   -  4 7 mph 1008.4mb 72f 69f
6:00  -   -   -  4 7 mph 1008.4mb 72f 69f
5:50 5.5ft 11s 7s 4 9 mph 1008.4mb 72f 69f
5:40  -   -   -  4 7 mph 1008.4mb 72f 69f
5:30  -   -   -  2 7 mph 1008.3mb 72f 69f
5:20  -   -   -  2 7 mph 1008.3mb 72f 69f
5:10  -   -   -   -  4 mph 1008.3mb 72f 69f
5:00  -   -   -  2 4 mph 1008.1mb 72f 68f
4:50 6.5ft 9s 8s 2 7 mph 1008.3mb 72f 68f
4:40 6.5ft  -  8s 2 7 mph 1008.1mb 72f 68f
4:30  -   -   -  4 7 mph 1008.1mb 72f 68f
4:20  -   -   -  4 7 mph 1008.3mb 72f 68f
4:10  -   -   -  4 9 mph 1008.3mb 72f 68f
4:00  -   -   -  4 7 mph 1008.3mb 72f 68f
3:50 6.5ft 10s 7s 4 9 mph 1008.3mb 72f 69f
3:40 6.5ft  -  7s 4 9 mph 1008.4mb 72f 69f
3:30  -   -   -  4 9 mph 1008.5mb 72f 69f
3:20  -   -   -  4 9 mph 1008.5mb 72f 69f
3:10  -   -   -  7 9 mph 1008.6mb 72f 69f
3:00  -   -   -  4 9 mph 1008.9mb 72f 69f
2:50 7.5ft 11s 8s 7 11 mph 1009mb 72f 69f
2:40  -   -   -  7 11 mph 1009.1mb 72f 69f
2:30  -   -   -  4 9 mph 1009.3mb 72f 70f
2:20  -   -   -  4 11 mph 1009.3mb 72f 70f
2:10  -   -   -  4 7 mph 1009.3mb 72f 70f
2:00  -   -   -  4 9 mph 1009.4mb 72f 70f
1:50 7ft 9s 7s 7 11 mph 1009.5mb 72f 71f
1:40 7ft  -  7s 4 7 mph 1009.5mb 72f 71f
1:30  -   -   -  2 7 mph 1009.6mb 72f 71f
1:20  -   -   -  4 7 mph 1009.6mb 72f 71f
1:10  -   -   -  4 7 mph 1009.6mb 72f 71f
1:00  -   -   -  4 7 mph 1009.6mb 72f 71f
12:50 7ft 11s 7s 4 7 mph 1009.6mb 72f 71f
12:40 7ft  -  7s 7 9 mph 1009.5mb 72f 71f
12:30  -   -   -  7 9 mph 1009.6mb 72f 71f
12:20  -   -   -  7 11 mph 1009.6mb 72f 71f
12:10  -   -   -  9 11 mph 1009.6mb 72f 71f
12:00  -   -   -  9 11 mph 1009.6mb 72f 71f
ven. 02/24 11:50 8ft 10s 7s 9 11 mph 1009.6mb 72f 71f
11:40 8ft  -  7s 9 11 mph 1009.8mb 72f 71f
11:30  -   -   -  9 11 mph 1009.8mb 72f 71f
11:20  -   -   -  9 11 mph 1009.8mb 72f 71f
11:10  -   -   -  9 11 mph 1009.8mb - 71f
11:00  -   -   -  9 11 mph 1009.8mb 72f 71f
10:50 7ft 10s 7s 11 13 mph 1010mb 72f 71f
10:40 7ft  -  7s 11 13 mph 1009.9mb 72f 71f
10:30  -   -   -  11 13 mph 1010mb 72f 71f
10:20  -   -   -  11 13 mph 1010mb 72f 71f
10:10  -   -   -  11 13 mph 1010mb 72f 71f
10:00  -   -   -  11 13 mph 1010mb 72f 71f
9:50 7ft 9s 7s 11 13 mph 1010.1mb 72f 71f
9:40 7ft  -  7s 11 16 mph 1010mb 72f 71f
9:30  -   -   -  11 16 mph 1010mb 72f 71f
9:20  -   -   -  11 16 mph 1010mb 72f 71f
9:10  -   -   -  13 16 mph 1010mb 72f 71f
9:00  -   -   -  11 16 mph 1010mb 72f 71f
8:50 7ft 10s 7s 13 16 mph 1010mb 72f 71f
8:40  -   -   -  13 16 mph 1010.1mb 72f 71f
8:30  -   -   -  13 16 mph 1010.3mb 72f 70f
8:20  -   -   -  13 16 mph 1010.1mb 72f 70f
8:10  -   -   -  13 16 mph 1010.1mb 72f 70f
8:00  -   -   -  13 16 mph 1010.1mb 72f 71f
7:50 7ft 9s 7s 11 16 mph 1010.3mb 72f 71f
7:40 7ft  -  7s 11 16 mph 1010.3mb 72f 71f
7:30  -   -   -  13 16 mph 1010.3mb 72f 71f
7:20  -   -   -  11 16 mph 1010.3mb 72f 71f
7:10  -   -   -  11 13 mph 1010.3mb 72f 70f
7:00  -   -   -  13 16 mph 1010.3mb 72f 70f
6:50 6ft 10s 7s 11 16 mph 1010.3mb 72f 70f
6:40 6ft  -  7s 11 16 mph 1010.3mb 72f 70f
6:30  -   -   -  13 16 mph 1010.3mb 72f 70f
6:20  -   -   -  11 16 mph 1010.3mb 72f 70f
6:10  -   -   -  13 16 mph 1010.3mb 72f 70f
6:00  -   -   -  13 16 mph 1010.1mb 72f 70f
5:50 7ft 10s 7s 13 16 mph 1010.1mb 72f 70f
5:40 7ft  -  7s 13 18 mph 1010mb 72f 70f
5:30  -   -   -  13 18 mph 1010mb 72f 70f
5:20  -   -   -  16 18 mph 1010mb 72f 70f
5:10  -   -   -  16 18 mph 1009.9mb 72f 70f
5:00  -   -   -  16 18 mph 1009.9mb 72f 70f
4:50 7ft 11s 7s 16 20 mph 1009.9mb 72f 70f
4:40  -   -   -  16 18 mph 1009.9mb 72f 70f
4:30  -   -   -  16 18 mph 1009.9mb 72f 70f
4:20  -   -   -  13 18 mph 1010mb 72f 71f
4:10  -   -   -  13 16 mph 1009.9mb 72f 70f
4:00  -   -   -  13 16 mph 1010mb 72f 70f
3:50 7ft 10s 7s 13 18 mph 1010mb 73f 70f
3:40 7ft  -  7s 13 18 mph 1010.1mb 73f 70f
3:30  -   -   -  13 18 mph 1010.1mb 73f 69f
3:20  -   -   -  16 18 mph 1010mb 73f 70f
3:10  -   -   -  16 18 mph 1010.1mb 73f 69f
3:00  -   -   -  13 18 mph 1010.1mb 73f 69f
2:50 6.5ft 11s 7s 13 18 mph 1010.3mb 73f 69f
2:40 6.5ft  -  7s 13 18 mph 1010.3mb 72f 69f
2:30  -   -   -  13 18 mph 1010.3mb 72f 69f
2:20  -   -   -  13 16 mph 1010.3mb 72f 69f
2:10  -   -   -  13 18 mph 1010.3mb 72f 69f
2:00  -   -   -  13 18 mph 1010.3mb 72f 69f
1:50 7ft 10s 7s 13 18 mph 1010.4mb 72f 69f
1:40 7ft  -  7s 13 16 mph 1010.4mb 72f 69f
1:30  -   -   -  13 16 mph 1010.5mb 72f 69f
1:20  -   -   -  16 18 mph 1010.5mb 72f 69f
1:10  -   -   -  16 18 mph 1010.8mb 72f 69f
1:00  -   -   -  13 18 mph 1010.8mb 72f 69f
12:50 8ft 10s 7s 13 18 mph 1011mb 72f 69f
12:40 8ft  -  7s 16 20 mph 1011.1mb 72f 69f
12:30  -   -   -  16 20 mph 1011.3mb 72f 69f
12:20  -   -   -  16 18 mph 1011.3mb 72f 69f
12:10  -   -   -  16 20 mph 1011.5mb 72f 69f
12:00  -   -   -  16 20 mph 1011.5mb 72f 69f
11:50 8ft 11s 7s 16 20 mph 1011.8mb 72f 69f
11:40 8ft  -  7s 16 18 mph 1011.9mb 72f 69f
11:30  -   -   -  16 18 mph 1012mb 72f 69f
11:20  -   -   -  13 20 mph 1012mb 72f 69f
11:10  -   -   -  16 18 mph 1012.1mb 72f 70f
11:00  -   -   -  16 20 mph 1012.3mb 72f 69f
10:50 8ft 11s 7s 16 20 mph 1012.4mb 72f 70f
10:40 8ft  -  7s 16 18 mph 1012.3mb 72f 69f
10:30  -   -   -  16 20 mph 1012.3mb 72f 69f
10:20  -   -   -  18 20 mph 1012.4mb 72f 69f
10:10  -   -   -  16 20 mph 1012.3mb 72f 69f
10:00  -   -   -  16 20 mph 1012.3mb 72f 70f
9:50 7.5ft 11s 7s 16 18 mph 1012.3mb 72f 70f
9:40 7.5ft  -  7s 13 18 mph 1012.1mb 72f 69f
9:30  -   -   -  13 18 mph 1012mb - -
9:20  -   -   -  16 20 mph 1012mb 72f 69f
9:10  -   -   -  16 20 mph 1012mb 72f 70f
9:00  -   -   -  13 18 mph 1012mb 72f 70f
8:50 8ft 11s 7s 13 20 mph 1012mb 72f 70f
8:40  -   -   -  13 18 mph 1011.9mb 72f 70f
8:30  -   -   -  13 18 mph 1011.6mb 72f 70f
8:20  -   -   -  13 18 mph 1011.6mb 72f 70f
8:10  -   -   -  13 18 mph 1011.6mb 72f 70f
8:00  -   -   -  13 20 mph 1011.5mb 72f 70f
7:50 8ft 11s 7s 11 16 mph 1011.5mb 72f 70f
7:40 8ft  -  7s 9 13 mph 1011.5mb 72f 71f
7:30  -   -   -  9 13 mph 1011.5mb 72f 72f
7:20  -   -   -  11 16 mph 1011.5mb 72f 72f
7:10  -   -   -  11 16 mph 1011.3mb 72f 71f
7:00  -   -   -  11 16 mph 1011.3mb 72f 71f
6:50 8ft 11s 7s 11 13 mph 1011.1mb 72f 71f
6:40  -   -   -  11 16 mph 1011mb 72f 71f
6:30  -   -   -  11 13 mph 1011mb 72f 71f
6:20  -   -   -  11 16 mph 1011mb 72f 71f
6:10  -   -   -  11 16 mph 1011.1mb 72f 71f
6:00  -   -   -  13 16 mph 1011.1mb 72f 71f
5:50 9ft 9s 7s 11 16 mph 1011mb 72f 71f
5:40 9ft  -  7s 11 16 mph 1011mb 72f 71f
5:30  -   -   -  13 16 mph 1011mb 72f 71f
5:20  -   -   -  13 18 mph 1011mb 72f 71f
5:10  -   -   -  13 18 mph 1011mb 72f 71f
5:00  -   -   -  16 18 mph 1011mb 72f 71f
4:50 8ft 10s 7s 13 20 mph 1010.9mb 72f 71f
4:40 8ft  -  7s 16 18 mph 1010.8mb 72f 71f
4:30  -   -   -  16 18 mph 1010.9mb 72f 71f
4:20  -   -   -  16 20 mph 1011mb 72f 71f
4:10  -   -   -  16 18 mph 1010.9mb 72f 71f
4:00  -   -   -  16 20 mph 1010.9mb 72f 71f
3:50 7.5ft 9s 6s 18 22 mph 1010.9mb 72f 71f
3:40 7.5ft  -  6s 16 20 mph 1010.8mb 72f 70f
3:30  -   -   -  16 20 mph 1011mb 72f 71f
3:20  -   -   -  11 20 mph 1010.9mb 72f 70f
3:10  -   -   -  11 16 mph 1011mb 72f 70f
3:00  -   -   -  11 18 mph 1011mb 72f 70f
2:50 7.5ft 10s 6s 11 16 mph 1011mb 72f 70f
2:40 7.5ft  -  6s 11 13 mph 1011mb 72f 70f
2:30  -   -   -  11 13 mph 1011.1mb 72f 70f
2:20  -   -   -  11 16 mph 1011.3mb 72f 70f
2:10  -   -   -  13 18 mph 1011.1mb 72f 70f
2:00  -   -   -  13 18 mph 1011mb 72f 71f
1:50 8ft 9s 6s 16 20 mph 1011.1mb 72f 71f
1:40 8ft  -  6s 18 22 mph 1011.1mb 71f 71f
1:30  -   -   -  16 22 mph 1011.1mb 71f 71f
1:20  -   -   -  16 20 mph 1011.1mb 71f 71f
1:10  -   -   -  13 18 mph 1011.1mb 71f 71f
1:00  -   -   -  11 18 mph 1011.1mb 71f 71f
12:50 8.5ft 9s 7s 13 18 mph 1011.1mb 71f 71f
12:40  -   -   -  13 18 mph 1011.3mb 71f 71f
12:30  -   -   -  13 18 mph 1011.4mb 71f 71f
12:20  -   -   -  16 18 mph 1011.4mb 71f 70f
12:10  -   -   -  16 22 mph 1011.5mb 71f 70f
12:00  -   -   -  20 25 mph 1011.6mb 71f 70f
jeu. 02/23 11:50 7.5ft 9s 6s 20 27 mph 1011.6mb 71f 71f
11:40 7.5ft  -  6s 20 25 mph 1011.6mb 71f 71f
11:30  -   -   -  18 22 mph 1011.8mb 71f 71f
11:20  -   -   -  18 22 mph 1011.9mb 71f 71f
11:10  -   -   -  16 20 mph 1011.9mb 71f 71f
11:00  -   -   -  16 20 mph 1011.9mb 71f 71f
10:50 8ft 8s 7s 16 20 mph 1012mb 71f 71f
10:40 8ft  -  7s 16 20 mph 1012mb 71f 71f
10:30  -   -   -  18 20 mph 1012mb 71f 71f
10:20  -   -   -  18 22 mph 1011.9mb 71f 71f
10:10  -   -   -  18 22 mph 1011.9mb 71f 71f
10:00  -   -   -  16 22 mph 1011.8mb 71f 71f
9:50 7.5ft 8s 7s 16 20 mph 1011.6mb 71f 71f
9:40 7.5ft  -  7s 11 16 mph 1011.6mb 70f 71f
9:30  -   -   -  11 16 mph 1011.6mb 70f 71f
9:20  -   -   -  13 18 mph 1011.6mb 70f 71f
9:10  -   -   -  13 16 mph 1011.6mb 70f 71f
9:00  -   -   -  13 18 mph 1011.5mb 70f 71f
8:50 7ft 8s 6s 13 18 mph 1011.5mb 71f 71f
8:40  -   -   -  13 16 mph 1011.5mb 71f 71f
8:20  -   -   -  16 20 mph 1011.4mb 71f 71f
8:10  -   -   -  16 20 mph 1011.5mb 71f 71f
8:00  -   -   -  16 20 mph - 71f 71f
7:50 7ft 8s 6s 16 22 mph 1011.4mb 71f 71f
7:40 7ft  -  6s 18 22 mph 1011.4mb 71f 71f
7:30  -   -   -  18 22 mph 1011.4mb 71f 71f
7:20  -   -   -  18 25 mph 1011.1mb 71f 71f
7:10  -   -   -  18 22 mph 1011.1mb 71f 71f
7:00  -   -   -  18 25 mph 1011mb 71f 71f
6:50 7ft 8s 6s 18 22 mph 1010.6mb 71f 71f
6:40 7ft  -  6s 16 20 mph 1010.6mb 71f 71f
6:30  -   -   -  18 22 mph 1010.5mb 71f 71f
6:20  -   -   -  18 22 mph 1010.5mb 71f 71f
6:10  -   -   -  18 22 mph 1010.5mb 71f 71f
6:00  -   -   -  20 25 mph 1010.5mb 71f 71f
5:50 7ft 8s 6s 20 25 mph 1010.5mb - -
5:40 7ft  -  6s 20 25 mph 1010.5mb 71f 71f
5:30  -   -   -  18 22 mph 1010.5mb 71f 71f
5:20  -   -   -  18 25 mph 1010.4mb 71f 71f
5:10  -   -   -  18 25 mph 1010.3mb 71f 71f
5:00  -   -   -  18 22 mph 1010.4mb 71f 71f
4:50 6.5ft 8s 6s 18 22 mph 1010.3mb 70f 71f
4:40 6.5ft  -  6s 16 20 mph 1010.3mb 70f 71f
4:30  -   -   -  16 18 mph 1010.3mb 70f 71f
4:20  -   -   -  16 18 mph 1010.3mb 70f 71f
4:10  -   -   -  16 20 mph 1010.3mb 70f 71f
4:00  -   -   -  13 18 mph 1010.3mb 70f 71f
3:50 6ft 8s 5s 13 18 mph 1010.3mb 70f 71f
3:40 6ft  -  5s 13 18 mph 1010.3mb 70f 71f
3:30  -   -   -  16 20 mph 1010.3mb 70f 71f
3:20  -   -   -  16 20 mph 1010.3mb 70f 71f
3:10  -   -   -  16 20 mph 1010.3mb 70f 71f
3:00  -   -   -  16 20 mph 1010.4mb 70f 71f
2:50 6.5ft 7s 5s 16 20 mph 1010.5mb 70f 71f
2:40 6.5ft  -  5s 16 20 mph 1010.6mb 70f 71f
2:30  -   -   -  16 20 mph 1010.6mb 70f 70f
2:20  -   -   -  13 18 mph 1010.8mb 70f 70f
2:10  -   -   -  16 20 mph 1011mb 70f 70f
2:00  -   -   -  16 18 mph 1011mb 70f 70f
1:50 6ft 7s 5s 16 22 mph 1011.1mb 70f 71f
1:40  -   -   -  18 22 mph 1011.3mb 70f 71f
1:30  -   -   -  18 20 mph 1011.4mb 70f 71f
1:20  -   -   -  16 20 mph 1011.5mb 70f 70f
1:10  -   -   -  16 20 mph 1011.6mb 70f 70f
1:00  -   -   -  18 20 mph 1011.8mb 70f 70f
12:50 6ft 7s 5s 18 22 mph 1011.9mb 70f 70f
12:40 6ft  -  5s 18 22 mph 1012mb 70f 69f
12:30  -   -   -  16 20 mph 1012.1mb 70f 68f
12:20  -   -   -  18 20 mph 1012.4mb 70f 68f
12:10  -   -   -  20 25 mph 1012.5mb 70f 68f
12:00  -   -   -  20 25 mph 1012.6mb 69f 69f
11:50 6ft 7s 5s 18 25 mph 1012.6mb 69f 70f
11:40 6ft  -  5s 20 25 mph 1012.6mb 69f 70f
11:30  -   -   -  18 22 mph 1012.6mb 69f 70f
11:20  -   -   -  16 20 mph 1012.8mb 69f 71f
11:10  -   -   -  13 20 mph 1013mb 69f 71f